Time;durP1;ratioP1;P1;durP2;ratioP2;P2;SDS_P1;SDS_P2;PMS_P1;PMS_P2;Temp;Humidity;BMP_temperature;BMP_pressure;BME280_temperature;BME280_humidity;BME280_pressure;Samples;Min_cycle;Max_cycle;Signal;HPM_P1;HPM_P2
2021/11/06 00:02:16;;;;;;;5.53;3.55;;;;;;;6.53;59.65;102432.22;7973855;28;20143;-66
2021/11/06 00:06:07;;;;;;;6.50;3.40;;;;;;;6.50;59.76;102429.69;7975875;28;20066;-66
2021/11/06 00:09:58;;;;;;;6.85;3.22;;;;;;;6.48;59.46;102443.66;7974156;28;20114;-67
2021/11/06 00:13:48;;;;;;;4.63;2.80;;;;;;;6.42;59.66;102431.63;7973372;28;20502;-67
2021/11/06 00:17:40;;;;;;;9.60;3.58;;;;;;;6.42;59.87;102439.44;7975198;28;20029;-67
2021/11/06 00:21:30;;;;;;;7.63;3.22;;;;;;;6.40;59.65;102446.44;7975174;28;20037;-66
2021/11/06 00:25:23;;;;;;;5.57;3.45;;;;;;;6.37;59.52;102446.53;7974437;28;20036;-66
2021/11/06 00:29:14;;;;;;;6.63;3.03;;;;;;;6.35;59.62;102450.91;7974487;28;20056;-66
2021/11/06 00:33:05;;;;;;;5.68;2.88;;;;;;;6.26;59.54;102432.88;7974904;28;20529;-67
2021/11/06 00:36:55;;;;;;;6.75;3.05;;;;;;;6.28;59.49;102438.91;7974549;28;20033;-66
2021/11/06 00:40:46;;;;;;;6.03;2.92;;;;;;;6.23;59.40;102434.69;7974461;28;20497;-66
2021/11/06 00:44:37;;;;;;;4.05;2.60;;;;;;;6.14;59.54;102427.09;7974326;28;20068;-66
2021/11/06 00:48:27;;;;;;;10.02;3.08;;;;;;;6.17;59.56;102434.84;7974397;28;20095;-67
2021/11/06 00:52:18;;;;;;;6.90;2.97;;;;;;;6.08;59.56;102430.69;7974411;28;20037;-66
2021/11/06 00:56:08;;;;;;;6.00;2.90;;;;;;;6.10;59.30;102442.78;7974697;28;20024;-67
2021/11/06 00:59:59;;;;;;;7.18;3.20;;;;;;;6.07;59.28;102445.47;7973829;28;20529;-67
2021/11/06 01:03:49;;;;;;;10.23;4.03;;;;;;;6.03;59.60;102446.44;7973348;28;20048;-66
2021/11/06 01:07:42;;;;;;;6.40;3.00;;;;;;;6.00;59.43;102456.09;7973010;28;20045;-66
2021/11/06 01:11:33;;;;;;;6.35;2.60;;;;;;;5.97;59.62;102461.38;7972646;28;20064;-66
2021/11/06 01:15:23;;;;;;;5.65;3.38;;;;;;;5.87;59.24;102446.81;7973378;28;20033;-66
2021/11/06 01:19:14;;;;;;;7.95;3.30;;;;;;;5.85;59.21;102446.81;7974059;28;20388;-67
2021/11/06 01:23:05;;;;;;;6.75;3.05;;;;;;;5.83;59.38;102451.22;7972375;28;20167;-66
2021/11/06 01:26:56;;;;;;;7.90;3.97;;;;;;;5.80;59.42;102446.09;7973988;28;20454;-66
2021/11/06 01:30:47;;;;;;;6.82;3.22;;;;;;;5.75;59.64;102445.31;7979922;28;20060;-66
2021/11/06 01:34:38;;;;;;;7.97;3.28;;;;;;;5.75;59.55;102457.50;7979646;28;20120;-66
2021/11/06 01:38:29;;;;;;;8.10;3.03;;;;;;;5.73;59.37;102454.91;7980253;28;20116;-66
2021/11/06 01:42:20;;;;;;;9.35;3.22;;;;;;;5.68;59.22;102442.88;7979258;28;20025;-66
2021/11/06 01:46:10;;;;;;;7.07;3.40;;;;;;;5.62;59.42;102434.28;7979586;28;20041;-67
2021/11/06 01:50:01;;;;;;;8.25;3.15;;;;;;;5.65;59.68;102442.03;7979608;28;20088;-66
2021/11/06 01:53:52;;;;;;;10.02;3.38;;;;;;;5.63;59.40;102450.78;7979420;28;20047;-66
2021/11/06 01:57:44;;;;;;;6.68;3.15;;;;;;;5.61;59.46;102450.81;7978649;28;20094;-66
2021/11/06 02:01:35;;;;;;;9.23;3.95;;;;;;;5.56;59.50;102434.41;7979338;28;20120;-67
2021/11/06 02:05:25;;;;;;;8.10;3.75;;;;;;;5.59;59.62;102450.00;7977947;28;20038;-66
2021/11/06 02:09:16;;;;;;;7.57;3.67;;;;;;;5.56;59.56;102450.03;7979271;28;20036;-67
2021/11/06 02:13:08;;;;;;;6.15;3.45;;;;;;;5.55;59.45;102447.50;7978865;28;20033;-66
2021/11/06 02:16:58;;;;;;;10.80;3.60;;;;;;;5.52;59.61;102452.72;7977186;28;20030;-66
2021/11/06 02:20:58;;;;;;;7.32;3.85;;;;;;;5.50;59.36;102452.78;7979054;28;20048;-66
2021/11/06 02:24:50;;;;;;;8.68;3.65;;;;;;;5.47;59.57;102446.78;7978292;28;20049;-67
2021/11/06 02:28:47;;;;;;;8.27;3.85;;;;;;;5.41;59.45;102434.72;7978360;28;20037;-67
2021/11/06 02:32:38;;;;;;;9.25;4.25;;;;;;;5.43;59.49;102448.59;7970687;28;20620;-66
2021/11/06 02:36:29;;;;;;;7.72;3.88;;;;;;;5.40;59.59;102440.81;7978525;28;20418;-67
2021/11/06 02:40:20;;;;;;;9.20;4.05;;;;;;;5.36;59.65;102439.16;7977965;28;20107;-66
2021/11/06 02:44:13;;;;;;;7.85;3.90;;;;;;;5.33;59.41;102428.81;7977527;28;20075;-67
2021/11/06 02:48:05;;;;;;;10.95;4.22;;;;;;;5.35;59.41;102426.19;7978293;28;20092;-66
2021/11/06 02:51:56;;;;;;;9.77;4.03;;;;;;;5.34;59.66;102435.75;7976888;28;20472;-66
2021/11/06 02:55:48;;;;;;;10.70;5.07;;;;;;;5.32;59.58;102423.59;7977476;28;20754;-66
2021/11/06 02:59:38;;;;;;;10.73;4.88;;;;;;;5.30;59.88;102431.47;7969725;28;20045;-66
2021/11/06 03:03:29;;;;;;;9.80;4.65;;;;;;;5.30;59.62;102430.63;7975808;28;20505;-66
2021/11/06 03:07:19;;;;;;;8.85;4.50;;;;;;;5.29;59.80;102427.16;7977647;28;20041;-66
2021/11/06 03:11:10;;;;;;;12.57;4.97;;;;;;;5.27;59.57;102428.91;7977185;28;20049;-67
2021/11/06 03:15:00;;;;;;;8.45;4.32;;;;;;;5.26;59.55;102428.94;7977242;28;20041;-66
2021/11/06 03:18:51;;;;;;;8.00;4.95;;;;;;;5.22;59.98;102425.56;7976812;28;20057;-66
2021/11/06 03:22:42;;;;;;;9.40;4.53;;;;;;;5.23;59.60;102419.44;7976713;28;20037;-66
2021/11/06 03:26:33;;;;;;;5.93;3.55;;;;;;;5.19;59.91;102415.16;7977166;28;20037;-66
2021/11/06 03:30:24;;;;;;;6.90;3.28;;;;;;;5.16;59.70;102423.91;7976406;28;20059;-66
2021/11/06 03:34:15;;;;;;;8.48;3.67;;;;;;;5.18;59.93;102435.19;7976459;28;20064;-66
2021/11/06 03:38:06;;;;;;;8.40;3.15;;;;;;;5.15;59.63;102431.75;7976512;28;20065;-66
2021/11/06 03:41:57;;;;;;;10.38;3.70;;;;;;;5.12;59.88;102437.84;7976318;28;20041;-66
2021/11/06 03:45:47;;;;;;;6.90;3.47;;;;;;;5.12;59.60;102432.66;7975664;28;20043;-67
2021/11/06 03:49:38;;;;;;;6.63;3.35;;;;;;;5.12;59.90;102427.44;7975556;28;20483;-66
2021/11/06 03:53:29;;;;;;;3.95;2.67;;;;;;;5.11;59.94;102435.25;7975816;28;20037;-66
2021/11/06 03:57:19;;;;;;;6.38;2.90;;;;;;;5.10;59.84;102438.78;7976313;28;20116;-66
2021/11/06 04:01:10;;;;;;;5.13;2.67;;;;;;;5.10;59.97;102425.75;7975398;28;20034;-67
2021/11/06 04:05:01;;;;;;;5.63;2.85;;;;;;;5.09;59.97;102430.09;7975227;28;20038;-66
2021/11/06 04:08:54;;;;;;;5.15;3.08;;;;;;;5.06;59.92;102434.50;7975555;28;20037;-67
2021/11/06 04:12:45;;;;;;;9.73;2.97;;;;;;;5.08;60.08;102440.53;7973954;28;20136;-66
2021/11/06 04:16:35;;;;;;;5.43;2.97;;;;;;;5.07;60.33;102438.81;7973556;28;20616;-66
2021/11/06 04:20:27;;;;;;;5.93;3.05;;;;;;;5.03;59.98;102427.59;7975358;28;20561;-66
2021/11/06 04:24:17;;;;;;;6.95;3.67;;;;;;;5.07;60.26;102436.22;7974934;28;20144;-66
2021/11/06 04:28:08;;;;;;;4.13;2.90;;;;;;;5.07;60.36;102433.59;7975091;28;20083;-67
2021/11/06 04:31:59;;;;;;;7.78;3.50;;;;;;;5.06;60.41;102429.31;7974327;28;20481;-67
2021/11/06 04:35:49;;;;;;;5.45;3.10;;;;;;;5.06;60.15;102435.34;7974801;28;20089;-66
2021/11/06 04:39:40;;;;;;;3.58;3.08;;;;;;;5.05;60.13;102428.44;7974625;28;20037;-66
2021/11/06 04:43:31;;;;;;;6.25;3.05;;;;;;;5.01;60.21;102434.59;7974458;28;20037;-66
2021/11/06 04:47:21;;;;;;;6.40;3.58;;;;;;;5.02;60.07;102436.28;7974446;28;20090;-66
2021/11/06 04:51:12;;;;;;;7.82;3.40;;;;;;;5.02;60.33;102436.28;7973844;28;20044;-66
2021/11/06 04:55:05;;;;;;;7.38;3.45;;;;;;;5.01;60.24;102433.72;7973921;28;20112;-67
2021/11/06 04:58:56;;;;;;;7.43;3.55;;;;;;;5.00;59.77;102422.44;7974588;28;20044;-66
2021/11/06 05:02:46;;;;;;;6.75;3.78;;;;;;;4.98;60.15;102420.78;7973884;28;20108;-66
2021/11/06 05:06:37;;;;;;;6.38;3.53;;;;;;;4.98;60.24;102425.97;7973910;28;20037;-66
2021/11/06 05:10:27;;;;;;;7.43;3.75;;;;;;;4.94;59.83;102432.97;7974076;28;20045;-67
2021/11/06 05:14:18;;;;;;;7.82;3.90;;;;;;;4.95;60.06;102424.28;7973848;28;20034;-66
2021/11/06 05:18:10;;;;;;;9.20;4.05;;;;;;;4.94;60.25;102432.13;7974358;28;20017;-66
2021/11/06 05:22:00;;;;;;;7.72;4.43;;;;;;;4.91;60.43;102430.41;7972166;28;20041;-66
2021/11/06 05:25:51;;;;;;;8.75;4.13;;;;;;;4.91;60.69;102429.56;7973950;28;20040;-66
2021/11/06 05:29:41;;;;;;;9.88;5.47;;;;;;;4.90;60.36;102410.47;7974019;28;20109;-66
2021/11/06 05:33:32;;;;;;;11.68;5.00;;;;;;;4.87;60.12;102409.66;7972516;28;20029;-66
2021/11/06 05:37:22;;;;;;;8.57;4.30;;;;;;;4.90;60.37;102414.81;7973811;28;20037;-66
2021/11/06 05:41:14;;;;;;;10.60;4.30;;;;;;;4.87;60.50;102407.94;7974385;28;20037;-66
2021/11/06 05:45:05;;;;;;;9.40;4.72;;;;;;;4.90;60.47;102415.69;7973289;28;20026;-66
2021/11/06 05:48:56;;;;;;;10.57;5.38;;;;;;;4.89;60.53;102424.41;7973617;28;20497;-66
2021/11/06 05:52:46;;;;;;;9.68;4.55;;;;;;;4.88;60.41;102421.81;7973232;28;20029;-66
2021/11/06 05:56:37;;;;;;;11.23;4.55;;;;;;;4.84;60.25;102418.41;7973431;28;20120;-66
2021/11/06 06:00:28;;;;;;;7.43;4.05;;;;;;;4.85;60.10;102420.13;7973380;28;20045;-65
2021/11/06 06:04:18;;;;;;;7.70;4.15;;;;;;;4.85;60.07;102419.28;7973041;28;20033;-65
2021/11/06 06:08:09;;;;;;;8.40;4.07;;;;;;;4.83;60.43;102419.28;7973539;28;20041;-65
2021/11/06 06:12:01;;;;;;;10.88;5.03;;;;;;;4.83;60.25;102428.84;7973561;28;20040;-65
2021/11/06 06:15:51;;;;;;;6.75;4.30;;;;;;;4.81;60.58;102425.41;7978711;28;20057;-65
2021/11/06 06:19:42;;;;;;;7.30;4.13;;;;;;;4.80;60.35;102445.38;7978421;28;20379;-66
2021/11/06 06:23:32;;;;;;;9.52;4.72;;;;;;;4.79;60.51;102441.06;7978201;28;20106;-67
2021/11/06 06:27:23;;;;;;;7.47;4.45;;;;;;;4.80;60.28;102453.19;7977325;28;20030;-66
2021/11/06 06:31:14;;;;;;;5.72;3.97;;;;;;;4.80;60.45;102457.53;7976697;28;20041;-66
2021/11/06 06:35:07;;;;;;;7.75;3.95;;;;;;;4.76;60.32;102443.72;7977682;28;20084;-66
2021/11/06 06:38:58;;;;;;;9.18;4.32;;;;;;;4.78;60.43;102441.06;7977060;28;20041;-66
2021/11/06 06:42:48;;;;;;;8.80;4.45;;;;;;;4.82;60.42;102456.63;7975578;28;20112;-66
2021/11/06 06:46:39;;;;;;;8.50;4.80;;;;;;;4.83;60.29;102452.28;7977006;28;20096;-65
2021/11/06 06:50:30;;;;;;;9.75;4.80;;;;;;;4.83;60.55;102449.66;7978231;28;20068;-65
2021/11/06 06:54:20;;;;;;;7.45;4.43;;;;;;;4.82;60.27;102447.94;7977166;28;20450;-65
2021/11/06 06:58:11;;;;;;;8.38;4.47;;;;;;;4.80;60.32;102437.56;7975640;28;20116;-65
2021/11/06 07:02:04;;;;;;;8.43;4.57;;;;;;;4.84;60.49;102436.63;7977514;28;20038;-65
2021/11/06 07:05:54;;;;;;;7.35;4.32;;;;;;;4.86;60.72;102433.97;7977071;28;20032;-65
2021/11/06 07:09:45;;;;;;;8.38;3.97;;;;;;;4.89;60.65;102439.16;7977358;28;20108;-65
2021/11/06 07:13:37;;;;;;;7.95;3.88;;;;;;;4.91;60.73;102447.78;7977376;28;20079;-65
2021/11/06 07:17:28;;;;;;;6.70;3.85;;;;;;;4.94;60.60;102446.00;7964645;28;20029;-65
2021/11/06 07:21:19;;;;;;;5.85;3.20;;;;;;;4.99;60.68;102448.50;7977169;28;20116;-65
2021/11/06 07:25:09;;;;;;;7.25;3.25;;;;;;;5.02;60.64;102449.31;7975501;28;20064;-65
2021/11/06 07:29:00;;;;;;;7.35;3.40;;;;;;;5.04;60.98;102455.38;7977173;28;20067;-65
2021/11/06 07:32:51;;;;;;;6.80;3.40;;;;;;;5.11;60.82;102467.38;7976669;28;20091;-65
2021/11/06 07:36:41;;;;;;;4.70;3.10;;;;;;;5.14;60.96;102467.34;7976825;28;20022;-65
2021/11/06 07:40:32;;;;;;;6.15;3.50;;;;;;;5.20;61.03;102482.03;7975212;28;20128;-65
2021/11/06 07:44:23;;;;;;;4.40;2.92;;;;;;;5.26;60.93;102475.84;7975722;28;20115;-65
2021/11/06 07:48:13;;;;;;;7.15;3.33;;;;;;;5.31;60.99;102479.25;7970650;28;20116;-65
2021/11/06 07:52:04;;;;;;;9.35;4.25;;;;;;;5.36;61.04;102478.25;7974012;28;20109;-65
2021/11/06 07:55:55;;;;;;;4.72;3.15;;;;;;;5.41;61.01;102472.94;7975968;28;20397;-65
2021/11/06 07:59:46;;;;;;;4.80;2.83;;;;;;;5.45;61.59;102472.00;7975936;28;20052;-65
2021/11/06 08:03:37;;;;;;;6.00;3.55;;;;;;;5.45;60.96;102467.66;7975839;28;20040;-65
2021/11/06 08:07:27;;;;;;;7.88;3.80;;;;;;;5.49;61.28;102464.09;7975703;28;20043;-66
2021/11/06 08:11:18;;;;;;;8.68;3.63;;;;;;;5.54;61.16;102467.47;7976004;28;20033;-65
2021/11/06 08:15:11;;;;;;;6.05;3.55;;;;;;;5.61;61.26;102468.19;7974554;28;20455;-65
2021/11/06 08:19:02;;;;;;;6.25;3.65;;;;;;;5.64;61.10;102455.97;7974587;28;20076;-65
2021/11/06 08:22:53;;;;;;;6.63;3.58;;;;;;;5.77;61.36;102456.56;7967983;28;20556;-66
2021/11/06 08:26:44;;;;;;;4.95;3.22;;;;;;;5.87;61.28;102452.03;7972121;28;20041;-66
2021/11/06 08:30:36;;;;;;;9.85;3.35;;;;;;;6.01;61.03;102444.75;7973044;28;20039;-64
2021/11/06 08:34:28;;;;;;;4.53;2.67;;;;;;;6.17;61.18;102445.28;7974313;28;20025;-65
2021/11/06 08:38:18;;;;;;;4.07;2.60;;;;;;;6.36;61.46;102455.25;7974228;28;20533;-65
2021/11/06 08:42:09;;;;;;;4.00;2.28;;;;;;;6.65;61.50;102446.72;7974147;28;20578;-66
2021/11/06 08:46:01;;;;;;;4.65;2.53;;;;;;;6.94;61.68;102446.00;7974998;28;20061;-66
2021/11/06 08:49:51;;;;;;;6.07;2.83;;;;;;;7.24;61.52;102450.44;7974744;28;20107;-66
2021/11/06 08:53:45;;;;;;;5.95;2.65;;;;;;;7.43;61.52;102443.78;7974793;28;20145;-66
2021/11/06 08:57:39;;;;;;;3.40;2.15;;;;;;;7.68;61.51;102441.31;7964547;28;20031;-66
2021/11/06 09:01:30;;;;;;;3.78;2.45;;;;;;;7.83;61.75;102427.81;7964239;28;20076;-66
2021/11/06 09:05:20;;;;;;;4.50;2.35;;;;;;;7.97;61.75;102424.75;7970605;28;20469;-66
2021/11/06 09:09:14;;;;;;;8.63;2.35;;;;;;;8.22;61.37;102430.13;7973608;28;20061;-67
2021/11/06 09:13:05;;;;;;;3.35;2.08;;;;;;;8.37;61.68;102432.25;7973380;28;20031;-66
2021/11/06 09:16:55;;;;;;;2.88;1.80;;;;;;;8.46;61.29;102429.31;7970494;28;20033;-66
2021/11/06 09:20:46;;;;;;;4.65;1.80;;;;;;;8.53;61.66;102435.22;7970262;28;20040;-67
2021/11/06 09:24:37;;;;;;;5.72;2.67;;;;;;;8.59;61.11;102438.50;7972547;28;20731;-66
2021/11/06 09:28:28;;;;;;;3.05;2.17;;;;;;;8.58;60.99;102443.81;7973963;28;20103;-66
2021/11/06 09:32:20;;;;;;;3.25;1.90;;;;;;;8.56;60.84;102443.84;7972925;28;20039;-66
2021/11/06 09:36:12;;;;;;;2.55;1.83;;;;;;;8.50;60.59;102451.06;7971866;28;20029;-66
2021/11/06 09:40:07;;;;;;;5.72;2.08;;;;;;;8.40;60.59;102442.63;7956355;28;20494;-67
2021/11/06 09:43:58;;;;;;;3.40;1.73;;;;;;;8.37;60.64;102445.34;7973423;28;20090;-67
2021/11/06 09:47:49;;;;;;;3.65;1.90;;;;;;;8.31;60.21;102446.41;7975425;28;20108;-67
2021/11/06 09:51:39;;;;;;;3.70;1.60;;;;;;;8.26;60.54;102442.19;7979766;28;20041;-66
2021/11/06 09:55:31;;;;;;;2.53;1.58;;;;;;;8.26;60.30;102443.06;7978970;28;20122;-67
2021/11/06 09:59:22;;;;;;;2.97;1.58;;;;;;;8.24;60.52;102437.03;7979536;28;20033;-66
2021/11/06 10:03:14;;;;;;;2.40;1.45;;;;;;;8.31;60.46;102441.16;7977957;28;20039;-66
2021/11/06 10:07:21;;;;;;;2.60;1.80;;;;;;;8.32;60.51;102440.25;7978865;28;20036;-66
2021/11/06 10:11:13;;;;;;;3.53;1.90;;;;;;;8.43;60.42;102441.66;7966390;28;20421;-65
2021/11/06 10:15:07;;;;;;;4.10;2.10;;;;;;;8.46;60.62;102431.13;7979042;28;20104;-66
2021/11/06 10:19:14;;;;;;;4.90;2.20;;;;;;;8.50;60.45;102428.31;7978523;28;20045;-66
2021/11/06 10:23:06;;;;;;;5.55;2.13;;;;;;;8.62;60.87;102434.94;7975313;28;20044;-66
2021/11/06 10:27:17;;;;;;;2.92;2.00;;;;;;;8.64;60.60;102423.50;7978616;28;20497;-66
2021/11/06 10:31:08;;;;;;;3.15;1.98;;;;;;;8.66;60.43;102421.69;7978642;28;20037;-66
2021/11/06 10:35:12;;;;;;;3.28;1.77;;;;;;;8.67;60.44;102423.38;7976695;28;20090;-66
2021/11/06 10:39:07;;;;;;;3.35;1.83;;;;;;;8.69;60.62;102421.56;7978228;28;20092;-66
2021/11/06 10:43:02;;;;;;;2.15;1.67;;;;;;;8.72;60.61;102410.13;7977370;28;20422;-66
2021/11/06 10:46:53;;;;;;;2.40;1.85;;;;;;;8.73;60.29;102415.31;7978017;28;20518;-66
2021/11/06 10:50:44;;;;;;;4.53;1.83;;;;;;;8.78;60.41;102413.41;7967060;28;20033;-66
2021/11/06 10:55:08;;;;;;;4.70;2.03;;;;;;;8.74;60.50;102392.59;7977375;28;20037;-66
2021/11/06 10:59:06;;;;;;;2.58;1.88;;;;;;;8.88;60.59;102398.19;7967333;28;20036;-66
2021/11/06 11:03:23;;;;;;;3.70;1.77;;;;;;;8.94;60.42;102394.53;7974661;28;20537;-66
2021/11/06 11:07:15;;;;;;;1.95;1.42;;;;;;;9.01;60.64;102394.25;7977817;28;20069;-66
2021/11/06 11:11:07;;;;;;;3.17;2.10;;;;;;;9.08;60.60;102381.78;7975698;28;20029;-66
2021/11/06 11:14:59;;;;;;;2.53;1.70;;;;;;;9.16;60.45;102380.56;7975161;28;20037;-66
2021/11/06 11:18:51;;;;;;;4.13;2.08;;;;;;;9.27;60.34;102367.09;7977485;28;20033;-66
2021/11/06 11:22:42;;;;;;;4.30;1.52;;;;;;;9.37;60.37;102371.09;7960882;28;20034;-66
2021/11/06 11:26:39;;;;;;;3.40;1.67;;;;;;;9.43;60.25;102364.78;7975813;28;20112;-66
2021/11/06 11:30:30;;;;;;;1.80;1.35;;;;;;;9.47;60.49;102354.13;7976954;28;20037;-66
2021/11/06 11:34:21;;;;;;;3.55;1.50;;;;;;;9.52;60.27;102351.31;7976239;28;20029;-66
2021/11/06 11:38:13;;;;;;;2.28;1.60;;;;;;;9.59;60.14;102356.28;7975446;28;20037;-66
2021/11/06 11:42:14;;;;;;;3.15;1.60;;;;;;;9.60;59.88;102347.50;7974975;28;20072;-66
2021/11/06 11:46:10;;;;;;;2.47;1.40;;;;;;;9.61;59.86;102341.34;7975153;28;20075;-66
2021/11/06 11:50:05;;;;;;;1.50;1.40;;;;;;;9.65;59.96;102334.19;7976889;28;20533;-66
2021/11/06 11:54:01;;;;;;;2.45;1.23;;;;;;;9.68;59.87;102324.44;7971974;28;20052;-66
2021/11/06 11:58:11;;;;;;;1.50;1.30;;;;;;;9.73;59.83;102313.75;7966495;28;20076;-66
2021/11/06 12:02:28;;;;;;;1.88;1.40;;;;;;;9.78;59.95;102311.81;7969999;28;20025;-66
2021/11/06 12:06:35;;;;;;;2.10;1.30;;;;;;;9.87;59.80;102297.44;7976169;28;20025;-66
2021/11/06 12:10:29;;;;;;;3.53;1.20;;;;;;;9.92;59.84;102298.09;7975472;28;20049;-66
2021/11/06 12:14:28;;;;;;;2.22;1.17;;;;;;;9.96;59.89;102294.44;7974722;28;20056;-66
2021/11/06 12:18:37;;;;;;;3.25;1.52;;;;;;;9.99;59.71;102287.28;7975481;28;20075;-66
2021/11/06 12:22:31;;;;;;;3.05;1.40;;;;;;;10.05;59.66;102289.69;7974909;28;20106;-66
2021/11/06 12:26:25;;;;;;;2.05;1.20;;;;;;;10.10;59.65;102274.59;7975751;28;20056;-66
2021/11/06 12:30:32;;;;;;;5.70;1.20;;;;;;;10.13;59.35;102269.19;7972245;28;20117;-66
2021/11/06 12:34:51;;;;;;;5.03;0.90;;;;;;;10.17;59.32;102272.53;7969726;28;20740;-66
2021/11/06 12:38:41;;;;;;;1.25;1.00;;;;;;;10.20;59.59;102268.00;7975273;28;20065;-66
2021/11/06 12:42:32;;;;;;;4.22;1.00;;;;;;;10.23;59.44;102256.53;7975012;28;20104;-66
2021/11/06 12:46:28;;;;;;;0.70;0.70;;;;;;;10.28;59.34;102257.19;7974657;28;20099;-66
2021/11/06 12:50:20;;;;;;;1.42;0.95;;;;;;;10.27;59.21;102242.38;7974849;28;20087;-66
2021/11/06 12:54:13;;;;;;;1.98;0.98;;;;;;;10.30;59.18;102242.22;7974683;28;20394;-66
2021/11/06 12:58:04;;;;;;;1.25;0.98;;;;;;;10.26;59.17;102235.41;7974716;28;20571;-66
2021/11/06 13:02:01;;;;;;;0.70;0.70;;;;;;;10.33;59.28;102238.59;7974344;28;20039;-66
2021/11/06 13:05:52;;;;;;;2.05;1.30;;;;;;;10.35;59.14;102236.78;7974488;28;20037;-66
2021/11/06 13:09:44;;;;;;;2.50;1.10;;;;;;;10.33;58.98;102230.72;7973739;28;20146;-66
2021/11/06 13:13:35;;;;;;;1.58;1.00;;;;;;;10.32;59.07;102221.16;7973892;28;20030;-66
2021/11/06 13:17:31;;;;;;;0.85;0.85;;;;;;;10.32;58.96;102223.78;7973819;28;20063;-66
2021/11/06 13:21:21;;;;;;;3.08;1.10;;;;;;;10.35;58.82;102210.50;7973906;28;20042;-66
2021/11/06 13:25:19;;;;;;;1.20;0.82;;;;;;;10.38;58.92;102215.63;7980099;28;20033;-66
2021/11/06 13:29:09;;;;;;;5.45;0.80;;;;;;;10.37;58.80;102206.03;7980478;28;20099;-66
2021/11/06 13:33:11;;;;;;;0.82;0.77;;;;;;;10.38;58.60;102205.09;7978842;28;20164;-66
2021/11/06 13:37:02;;;;;;;1.05;0.95;;;;;;;10.38;58.63;102199.84;7972925;28;20067;-66
2021/11/06 13:41:06;;;;;;;2.45;1.20;;;;;;;10.36;58.54;102191.22;7979192;28;20056;-66
2021/11/06 13:45:11;;;;;;;2.75;1.00;;;;;;;10.31;58.49;102190.53;7972372;28;20040;-66
2021/11/06 13:49:23;;;;;;;2.63;1.40;;;;;;;10.27;58.55;102183.72;7979416;28;20033;-66
2021/11/06 13:53:14;;;;;;;1.80;0.93;;;;;;;10.25;58.44;102187.25;7979852;28;20037;-66
2021/11/06 13:57:14;;;;;;;1.63;1.02;;;;;;;10.16;58.22;102171.03;7979658;28;20033;-66
2021/11/06 14:01:04;;;;;;;2.78;1.00;;;;;;;10.17;58.27;102181.50;7979947;28;20090;-66
2021/11/06 14:05:07;;;;;;;2.17;1.20;;;;;;;10.12;58.34;102175.59;7979022;28;20037;-66
2021/11/06 14:09:03;;;;;;;1.27;0.90;;;;;;;10.09;58.18;102172.25;7979472;28;20044;-66
2021/11/06 14:12:57;;;;;;;2.45;1.35;;;;;;;10.04;58.03;102167.19;7978874;28;20087;-66
2021/11/06 14:17:08;;;;;;;2.92;1.90;;;;;;;9.98;58.21;102161.38;7979161;28;20521;-67
2021/11/06 14:21:10;;;;;;;3.67;1.35;;;;;;;9.95;57.73;102157.06;7979052;28;20567;-66
2021/11/06 14:25:04;;;;;;;3.20;1.10;;;;;;;9.91;57.99;102160.75;7978752;28;20071;-67
2021/11/06 14:29:06;;;;;;;2.75;1.50;;;;;;;9.88;57.90;102145.16;7978199;28;20037;-67
2021/11/06 14:33:03;;;;;;;1.23;1.13;;;;;;;9.81;57.79;102132.34;7978100;28;20029;-68
2021/11/06 14:37:16;;;;;;;1.92;1.27;;;;;;;9.82;57.96;102131.44;7979042;28;20109;-67
2021/11/06 14:41:06;;;;;;;4.50;1.75;;;;;;;9.81;57.93;102124.47;7978908;28;20077;-68
2021/11/06 14:44:57;;;;;;;2.85;1.33;;;;;;;9.81;58.00;102121.84;7977859;28;20038;-66
2021/11/06 14:48:53;;;;;;;3.58;1.60;;;;;;;9.79;57.93;102119.28;7978036;28;20120;-66
2021/11/06 14:52:44;;;;;;;1.92;1.23;;;;;;;9.77;57.86;102119.38;7977650;28;20033;-65
2021/11/06 14:56:41;;;;;;;1.83;1.48;;;;;;;9.77;57.83;102115.91;7979631;28;20045;-66
2021/11/06 15:00:36;;;;;;;3.17;1.75;;;;;;;9.76;57.88;102119.44;7977661;28;20040;-67
2021/11/06 15:04:59;;;;;;;4.05;1.40;;;;;;;9.72;57.91;102107.34;7977378;28;20037;-66
2021/11/06 15:08:49;;;;;;;1.88;1.50;;;;;;;9.74;57.87;102105.53;7949783;28;20053;-65
2021/11/06 15:12:40;;;;;;;2.70;1.42;;;;;;;9.72;57.85;102097.72;7976376;28;20139;-66
2021/11/06 15:16:34;;;;;;;1.75;1.30;;;;;;;9.72;57.70;102100.34;7976592;28;20475;-66
2021/11/06 15:20:27;;;;;;;2.20;1.45;;;;;;;9.72;57.84;102089.00;7977267;28;20159;-66
2021/11/06 15:24:18;;;;;;;2.28;1.20;;;;;;;9.71;57.89;102085.50;7976236;28;20742;-66
2021/11/06 15:28:11;;;;;;;2.38;1.35;;;;;;;9.74;57.75;102095.88;7976759;28;20927;-65
2021/11/06 15:32:05;;;;;;;2.47;1.40;;;;;;;9.74;57.70;102089.78;7976191;28;20078;-65
2021/11/06 15:35:56;;;;;;;1.60;1.23;;;;;;;9.75;57.95;102096.72;7972861;28;20624;-66
2021/11/06 15:39:48;;;;;;;2.33;1.40;;;;;;;9.66;57.88;102082.22;7972562;28;20029;-66
2021/11/06 15:43:39;;;;;;;2.53;1.83;;;;;;;9.73;57.79;102090.72;7976211;28;20057;-65
2021/11/06 15:47:29;;;;;;;5.15;1.60;;;;;;;9.70;57.87;102086.41;7974789;28;20044;-65
2021/11/06 15:51:37;;;;;;;2.42;1.70;;;;;;;9.68;57.85;102090.03;7974527;28;20025;-66
2021/11/06 15:55:27;;;;;;;4.45;1.42;;;;;;;9.60;57.69;102081.66;7980379;28;20057;-65
2021/11/06 15:59:18;;;;;;;2.83;1.60;;;;;;;9.63;57.98;102079.75;7974052;28;20029;-66
2021/11/06 16:03:08;;;;;;;2.88;1.98;;;;;;;9.64;57.73;102083.22;7973555;28;20044;-66
2021/11/06 16:07:00;;;;;;;2.25;1.33;;;;;;;9.62;57.67;102077.19;7974471;28;20037;-66
2021/11/06 16:10:51;;;;;;;1.90;1.52;;;;;;;9.60;57.88;102073.78;7973863;28;20410;-66
2021/11/06 16:14:41;;;;;;;2.35;1.85;;;;;;;9.55;57.63;102060.84;7969705;28;21036;-66
2021/11/06 16:18:39;;;;;;;2.60;1.92;;;;;;;9.61;57.87;102065.00;7973740;28;20505;-68
2021/11/06 16:22:31;;;;;;;2.07;1.40;;;;;;;9.60;57.73;102069.38;7973289;28;20053;-68
2021/11/06 16:26:22;;;;;;;3.10;1.83;;;;;;;9.60;57.79;102058.03;7974320;28;20037;-72
2021/11/06 16:30:13;;;;;;;4.00;1.42;;;;;;;9.60;57.92;102065.91;7973201;28;20040;-72
2021/11/06 16:34:04;;;;;;;1.80;1.38;;;;;;;9.57;57.87;102059.03;7971285;28;20057;-72
2021/11/06 16:37:57;;;;;;;3.80;1.55;;;;;;;9.56;57.99;102053.84;7973357;28;20029;-72
2021/11/06 16:41:48;;;;;;;1.77;1.20;;;;;;;9.53;57.89;102039.09;7974668;28;20033;-71
2021/11/06 16:45:39;;;;;;;1.80;1.30;;;;;;;9.52;57.86;102053.13;7973760;28;20033;-71
2021/11/06 16:49:29;;;;;;;1.88;1.35;;;;;;;9.48;57.98;102048.94;7973444;28;20038;-71
2021/11/06 16:53:22;;;;;;;2.80;1.88;;;;;;;9.44;57.92;102046.50;7973863;28;20031;-70
2021/11/06 16:57:12;;;;;;;1.88;1.20;;;;;;;9.42;58.18;102036.06;7970688;28;20052;-68
2021/11/06 17:01:04;;;;;;;2.33;1.25;;;;;;;9.41;58.07;102026.47;7972633;28;20080;-71
2021/11/06 17:04:55;;;;;;;2.90;1.23;;;;;;;9.44;58.10;102020.28;7971835;28;20367;-67
2021/11/06 17:08:59;;;;;;;2.90;1.50;;;;;;;9.43;58.06;102015.94;7971711;28;20502;-68
2021/11/06 17:12:50;;;;;;;1.23;0.90;;;;;;;9.41;58.14;101987.16;7973020;28;20112;-69
2021/11/06 17:16:41;;;;;;;1.13;1.00;;;;;;;9.45;58.20;102001.88;7971987;28;20037;-68
2021/11/06 17:20:31;;;;;;;3.42;1.42;;;;;;;9.43;58.06;101984.47;7969890;28;20037;-68
2021/11/06 17:24:22;;;;;;;1.40;1.10;;;;;;;9.48;58.00;101993.00;7972076;28;20116;-71
2021/11/06 17:28:14;;;;;;;2.75;1.52;;;;;;;9.47;58.04;101992.13;7973375;28;20470;-70
2021/11/06 17:32:06;;;;;;;2.35;1.30;;;;;;;9.47;58.13;101979.03;7972960;28;20037;-70
2021/11/06 17:35:57;;;;;;;2.00;1.27;;;;;;;9.46;58.03;101976.47;7980646;28;20044;-72
2021/11/06 17:39:47;;;;;;;1.88;0.98;;;;;;;9.47;58.13;101980.78;7973189;28;20746;-72
2021/11/06 17:43:38;;;;;;;1.33;1.10;;;;;;;9.46;57.96;101968.59;7971747;28;20067;-71
2021/11/06 17:47:29;;;;;;;1.80;1.02;;;;;;;9.48;57.92;101970.25;7972731;28;20037;-68
2021/11/06 17:51:23;;;;;;;1.27;1.15;;;;;;;9.48;57.95;101962.38;7974121;28;20076;-71
2021/11/06 17:55:16;;;;;;;1.38;1.20;;;;;;;9.50;57.86;101971.00;7972872;28;20037;-71
2021/11/06 17:59:07;;;;;;;1.30;1.00;;;;;;;9.46;57.92;101945.84;7972550;28;20045;-70
2021/11/06 18:02:58;;;;;;;2.30;1.20;;;;;;;9.44;58.02;101926.72;7972415;28;20127;-70
2021/11/06 18:06:48;;;;;;;3.00;1.67;;;;;;;9.49;57.83;101930.00;7972918;28;20029;-70
2021/11/06 18:10:39;;;;;;;4.32;1.90;;;;;;;9.48;57.88;101935.28;7976685;28;20528;-71
2021/11/06 18:14:30;;;;;;;1.25;1.10;;;;;;;9.43;57.87;101917.13;7977949;28;20052;-70